Time;durP1;ratioP1;P1;durP2;ratioP2;P2;SDS_P1;SDS_P2;PMS_P1;PMS_P2;Temp;Humidity;BMP_temperature;BMP_pressure;BME280_temperature;BME280_humidity;BME280_pressure;Samples;Min_cycle;Max_cycle;Signal;HPM_P1;HPM_P2
2023/09/01 00:03:43;;;;;;;2.10;0.85;;;;;;;12.01;100.00;98258.78;15272733;19;20081;-49
2023/09/01 00:09:08;;;;;;;2.58;1.05;;;;;;;11.95;100.00;98264.81;15274116;19;20077;-52
2023/09/01 00:14:33;;;;;;;2.55;1.00;;;;;;;11.86;100.00;98257.75;15267682;19;20074;-49
2023/09/01 00:20:00;;;;;;;1.60;0.90;;;;;;;11.76;100.00;98257.97;15275534;19;20077;-49
2023/09/01 00:25:25;;;;;;;1.52;1.05;;;;;;;11.67;100.00;98264.41;15267682;19;20024;-52
2023/09/01 00:30:59;;;;;;;1.98;1.00;;;;;;;11.60;100.00;98269.63;15274866;19;20010;-51
2023/09/01 00:36:26;;;;;;;2.03;1.00;;;;;;;11.54;100.00;98273.03;15267635;19;20019;-55
2023/09/01 00:41:51;;;;;;;1.65;0.93;;;;;;;11.50;100.00;98275.22;15274139;19;20018;-49
2023/09/01 00:47:17;;;;;;;2.22;1.00;;;;;;;11.47;100.00;98272.88;15264761;19;20501;-49
2023/09/01 00:52:45;;;;;;;1.60;1.02;;;;;;;11.45;100.00;98263.28;15272477;19;20022;-50
2023/09/01 00:58:11;;;;;;;1.92;1.00;;;;;;;11.37;100.00;98254.16;15265083;19;20047;-48
2023/09/01 01:03:43;;;;;;;2.17;1.10;;;;;;;11.34;100.00;98268.00;15267135;19;20410;-50
2023/09/01 01:09:24;;;;;;;1.65;1.00;;;;;;;11.31;100.00;98264.78;15270836;19;20014;-55
2023/09/01 01:14:55;;;;;;;1.67;0.93;;;;;;;11.25;100.00;98263.63;15267899;19;20024;-54
2023/09/01 01:20:33;;;;;;;2.53;0.90;;;;;;;11.18;100.00;98252.66;15269019;19;20096;-50
2023/09/01 01:26:01;;;;;;;1.80;1.02;;;;;;;11.13;100.00;98248.78;15266541;19;20291;-57
2023/09/01 01:31:26;;;;;;;2.83;1.05;;;;;;;11.03;100.00;98249.81;15270536;19;20024;-53
2023/09/01 01:36:59;;;;;;;2.00;1.10;;;;;;;10.96;100.00;98254.19;15266117;19;20082;-52
2023/09/01 01:42:29;;;;;;;2.38;1.20;;;;;;;10.91;100.00;98262.78;15271091;19;20079;-57
2023/09/01 01:47:55;;;;;;;1.73;1.00;;;;;;;10.86;100.00;98275.09;15264904;19;20011;-54
2023/09/01 01:53:20;;;;;;;2.00;1.10;;;;;;;10.83;100.00;98289.72;15266436;19;20291;-56
2023/09/01 01:58:47;;;;;;;3.00;1.15;;;;;;;10.80;100.00;98292.75;15263096;19;20014;-56
2023/09/01 02:04:18;;;;;;;1.45;1.00;;;;;;;10.75;100.00;98290.56;15262520;19;20019;-55
2023/09/01 02:09:43;;;;;;;2.20;1.20;;;;;;;10.72;100.00;98284.63;15269854;19;20074;-53
2023/09/01 02:15:10;;;;;;;2.65;1.20;;;;;;;10.68;100.00;98286.81;15277023;19;20014;-54
2023/09/01 02:20:38;;;;;;;3.20;1.30;;;;;;;10.64;100.00;98294.41;15277143;19;20014;-54
2023/09/01 02:26:04;;;;;;;2.10;1.23;;;;;;;10.61;100.00;98288.50;15279811;19;20018;-54
2023/09/01 02:31:33;;;;;;;1.77;1.20;;;;;;;10.60;100.00;98289.50;15277552;19;20034;-55
2023/09/01 02:36:58;;;;;;;3.90;1.48;;;;;;;10.58;100.00;98294.22;15277510;19;20396;-52
2023/09/01 02:42:23;;;;;;;1.65;1.05;;;;;;;10.55;100.00;98294.53;15282605;19;20011;-55
2023/09/01 02:47:51;;;;;;;1.98;1.13;;;;;;;10.50;100.00;98305.81;15279868;19;20023;-54
2023/09/01 02:53:18;;;;;;;2.40;1.30;;;;;;;10.51;100.00;98317.44;15273742;19;20023;-55
2023/09/01 02:58:43;;;;;;;3.13;1.60;;;;;;;10.49;100.00;98328.34;15275755;19;20078;-56
2023/09/01 03:04:17;;;;;;;3.90;1.40;;;;;;;10.47;100.00;98309.69;15270529;19;20097;-56
2023/09/01 03:09:43;;;;;;;2.25;1.42;;;;;;;10.45;100.00;98314.38;15274546;19;20606;-56
2023/09/01 03:15:10;;;;;;;3.47;1.60;;;;;;;10.43;100.00;98320.94;15268207;19;20025;-56
2023/09/01 03:20:38;;;;;;;3.80;1.65;;;;;;;10.44;100.00;98342.31;15269120;19;20022;-57
2023/09/01 03:26:04;;;;;;;2.03;1.20;;;;;;;10.44;100.00;98336.94;15259700;19;20016;-57
2023/09/01 03:31:31;;;;;;;2.65;1.40;;;;;;;10.42;100.00;98332.72;15279165;19;20017;-55
2023/09/01 03:36:59;;;;;;;3.50;1.40;;;;;;;10.39;100.00;98323.13;15269388;19;20479;-56
2023/09/01 03:42:25;;;;;;;3.35;1.30;;;;;;;10.38;100.00;98316.06;15277037;19;20015;-57
2023/09/01 03:47:49;;;;;;;3.00;1.42;;;;;;;10.35;100.00;98321.72;15277338;19;20047;-56
2023/09/01 03:53:16;;;;;;;3.67;1.60;;;;;;;10.33;100.00;98310.25;15274992;19;20316;-55
2023/09/01 03:58:41;;;;;;;5.55;1.40;;;;;;;10.30;100.00;98315.97;15269342;19;20020;-55
2023/09/01 04:04:13;;;;;;;4.75;1.60;;;;;;;10.29;100.00;98325.06;15271154;19;20039;-58
2023/09/01 04:09:40;;;;;;;3.38;1.48;;;;;;;10.29;100.00;98327.78;15269674;19;20365;-53
2023/09/01 04:15:06;;;;;;;3.88;1.60;;;;;;;10.28;100.00;98321.53;15270778;19;20043;-55
2023/09/01 04:20:31;;;;;;;4.03;1.80;;;;;;;10.26;100.00;98317.31;15276305;19;20089;-57
2023/09/01 04:25:58;;;;;;;2.45;1.40;;;;;;;10.25;100.00;98310.25;15268396;19;20629;-54
2023/09/01 04:31:29;;;;;;;5.25;1.90;;;;;;;10.25;100.00;98313.75;15264584;19;20409;-53
2023/09/01 04:36:53;;;;;;;4.57;1.70;;;;;;;10.24;100.00;98330.91;15266683;19;20014;-56
2023/09/01 04:42:20;;;;;;;3.47;1.70;;;;;;;10.25;100.00;98338.00;15270199;19;20031;-53
2023/09/01 04:47:46;;;;;;;4.47;1.50;;;;;;;10.25;100.00;98342.56;15273782;19;20022;-53
2023/09/01 04:53:11;;;;;;;3.10;1.60;;;;;;;10.26;100.00;98333.47;15271242;19;20096;-55
2023/09/01 04:58:38;;;;;;;4.53;1.70;;;;;;;10.27;100.00;98349.44;15268691;19;20349;-55
2023/09/01 05:04:10;;;;;;;4.78;1.77;;;;;;;10.32;100.00;98354.34;15262084;19;20025;-57
2023/09/01 05:09:35;;;;;;;4.68;1.60;;;;;;;10.37;100.00;98361.94;15270250;19;20490;-56
2023/09/01 05:15:03;;;;;;;4.05;1.80;;;;;;;10.39;100.00;98355.44;15264531;19;20014;-57
2023/09/01 05:20:28;;;;;;;3.28;1.45;;;;;;;10.44;100.00;98353.09;15272026;19;20014;-56
2023/09/01 05:25:59;;;;;;;3.72;1.70;;;;;;;10.50;100.00;98356.16;15264729;19;20018;-57
2023/09/01 05:31:26;;;;;;;4.80;2.27;;;;;;;10.57;100.00;98370.66;15271488;19;20031;-57
2023/09/01 05:36:51;;;;;;;4.85;1.90;;;;;;;10.61;100.00;98390.88;15261568;19;20296;-55
2023/09/01 05:42:16;;;;;;;4.78;1.90;;;;;;;10.68;100.00;98396.47;15271080;19;20035;-57
2023/09/01 05:47:45;;;;;;;4.70;1.70;;;;;;;10.72;100.00;98393.28;15263230;19;20053;-54
2023/09/01 05:53:10;;;;;;;3.42;1.60;;;;;;;10.83;100.00;98393.97;15267553;19;20040;-57
2023/09/01 05:58:36;;;;;;;5.20;1.83;;;;;;;10.92;100.00;98391.16;15266395;19;20522;-57
2023/09/01 06:04:10;;;;;;;5.13;1.67;;;;;;;11.09;100.00;98410.06;15266530;19;20028;-57
2023/09/01 06:09:35;;;;;;;2.65;1.40;;;;;;;11.27;100.00;98420.72;15263031;19;20025;-58
2023/09/01 06:15:00;;;;;;;5.10;1.90;;;;;;;11.42;100.00;98420.88;15266685;19;20031;-54
2023/09/01 06:20:28;;;;;;;3.85;1.70;;;;;;;11.62;100.00;98429.50;15262540;19;20025;-53
2023/09/01 06:25:52;;;;;;;4.07;1.63;;;;;;;11.77;100.00;98410.78;15265241;19;20014;-53
2023/09/01 06:31:17;;;;;;;4.32;1.77;;;;;;;11.91;100.00;98408.41;15272889;19;20015;-55
2023/09/01 06:36:44;;;;;;;5.40;1.80;;;;;;;12.00;100.00;98405.59;15269023;19;20082;-55
2023/09/01 06:42:09;;;;;;;3.80;1.60;;;;;;;12.11;100.00;98404.38;15261281;19;20021;-57
2023/09/01 06:47:33;;;;;;;4.07;1.83;;;;;;;12.22;100.00;98408.56;15267092;19;20082;-54
2023/09/01 06:53:01;;;;;;;3.55;1.50;;;;;;;12.41;100.00;98414.59;15261716;19;20010;-58
2023/09/01 06:58:25;;;;;;;3.53;1.90;;;;;;;12.56;100.00;98412.88;15268881;19;20025;-58
2023/09/01 07:03:58;;;;;;;3.00;1.40;;;;;;;12.75;100.00;98406.22;15276730;19;20113;-52
2023/09/01 07:09:26;;;;;;;4.35;1.75;;;;;;;12.90;100.00;98370.31;15285198;19;20021;-51
2023/09/01 07:14:50;;;;;;;3.28;1.55;;;;;;;12.99;100.00;98357.59;15274374;19;20422;-56
2023/09/01 07:20:10;;;;;;;3.38;1.60;;;;;;;13.06;100.00;98350.44;15276699;19;20019;-56
2023/09/01 07:25:37;;;;;;;2.65;1.40;;;;;;;13.16;100.00;98342.94;15272632;19;20013;-55
2023/09/01 07:31:03;;;;;;;3.63;1.45;;;;;;;13.26;100.00;98338.13;15277651;19;20490;-54
2023/09/01 07:36:28;;;;;;;4.15;1.55;;;;;;;13.42;100.00;98336.34;15274548;19;20024;-54
2023/09/01 07:41:55;;;;;;;3.30;1.58;;;;;;;13.60;100.00;98341.44;15277103;19;20014;-54
2023/09/01 07:47:21;;;;;;;3.88;1.63;;;;;;;13.82;100.00;98319.91;15273493;19;20018;-57
2023/09/01 07:52:46;;;;;;;3.00;1.45;;;;;;;14.02;100.00;98310.22;15276698;19;20018;-51
2023/09/01 07:58:14;;;;;;;2.28;1.25;;;;;;;14.27;100.00;98307.22;15271329;19;20014;-52
2023/09/01 08:03:38;;;;;;;3.17;1.45;;;;;;;14.51;100.00;98301.69;15274108;19;20020;-54
2023/09/01 08:09:04;;;;;;;2.35;1.13;;;;;;;14.70;100.00;98297.56;15274849;19;20602;-51
2023/09/01 08:14:31;;;;;;;1.30;0.90;;;;;;;14.77;100.00;98279.50;15263470;19;20014;-54
2023/09/01 08:19:56;;;;;;;1.92;0.90;;;;;;;14.88;100.00;98279.00;15275046;19;20043;-54
2023/09/01 08:25:22;;;;;;;2.22;1.00;;;;;;;14.96;100.00;98267.19;15271878;19;20006;-55
2023/09/01 08:30:51;;;;;;;2.53;0.85;;;;;;;15.06;100.00;98266.84;15273243;19;20038;-55
2023/09/01 08:36:16;;;;;;;1.63;0.98;;;;;;;15.21;100.00;98274.94;15273796;19;20021;-54
2023/09/01 08:41:43;;;;;;;1.67;1.00;;;;;;;15.26;100.00;98277.88;15274111;19;20040;-58
2023/09/01 08:47:10;;;;;;;1.27;1.00;;;;;;;15.34;100.00;98275.06;15265605;19;20025;-55
2023/09/01 08:52:38;;;;;;;1.10;1.00;;;;;;;15.49;100.00;98276.81;15274316;19;20531;-53
2023/09/01 08:58:03;;;;;;;0.82;0.75;;;;;;;15.69;100.00;98261.53;15265753;19;20032;-57
2023/09/01 09:03:37;;;;;;;1.48;0.90;;;;;;;16.04;100.00;98273.47;15272894;19;20444;-52
2023/09/01 09:09:11;;;;;;;1.70;0.90;;;;;;;16.41;100.00;98258.59;15274450;19;20075;-57
2023/09/01 09:14:55;;;;;;;1.00;0.80;;;;;;;16.74;100.00;98251.59;15270658;19;20018;-54
2023/09/01 09:20:24;;;;;;;0.82;0.75;;;;;;;16.99;100.00;98234.72;15263824;19;20018;-55
2023/09/01 09:25:49;;;;;;;1.10;0.70;;;;;;;17.20;100.00;98234.53;15267078;19;20007;-57
2023/09/01 09:31:14;;;;;;;0.50;0.50;;;;;;;17.50;100.00;98233.25;15268836;19;20017;-58
2023/09/01 09:36:44;;;;;;;0.88;0.20;;;;;;;17.71;100.00;98229.44;15270361;19;20015;-57
2023/09/01 09:42:09;;;;;;;0.50;0.40;;;;;;;17.70;100.00;98216.88;15268094;19;20015;-56
2023/09/01 09:47:34;;;;;;;0.20;0.20;;;;;;;17.83;100.00;98216.84;15271554;19;20022;-56
2023/09/01 09:53:03;;;;;;;0.70;0.38;;;;;;;17.91;100.00;98210.31;15263171;19;20015;-58
2023/09/01 09:58:39;;;;;;;0.57;0.40;;;;;;;17.98;100.00;98205.75;15269861;19;20022;-56
2023/09/01 10:04:06;;;;;;;0.20;0.20;;;;;;;17.97;100.00;98203.22;15263885;19;20025;-56
2023/09/01 10:09:33;;;;;;;0.30;0.30;;;;;;;18.07;100.00;98211.78;15270884;19;20018;-52
2023/09/01 10:15:03;;;;;;;0.25;0.22;;;;;;;18.07;100.00;98219.94;15266902;19;20017;-53
2023/09/01 10:20:28;;;;;;;0.28;0.20;;;;;;;18.14;100.00;98223.50;15267710;19;20512;-54
2023/09/01 10:26:18;;;;;;;0.40;0.40;;;;;;;18.14;100.00;98207.16;15259354;19;20083;-55
2023/09/01 10:31:43;;;;;;;0.63;0.30;;;;;;;18.37;100.00;98202.22;15268670;19;20047;-57
2023/09/01 10:37:27;;;;;;;0.30;0.30;;;;;;;18.42;100.00;98192.31;15272739;19;20017;-52
2023/09/01 10:42:55;;;;;;;0.40;0.40;;;;;;;18.60;100.00;98212.59;15282068;19;20021;-53
2023/09/01 10:48:52;;;;;;;0.40;0.40;;;;;;;18.71;100.00;98200.97;15281893;19;20015;-55
2023/09/01 10:54:46;;;;;;;0.25;0.25;;;;;;;18.78;100.00;98200.94;15279375;19;20018;-58
2023/09/01 11:00:30;;;;;;;0.30;0.20;;;;;;;19.03;100.00;98194.72;15274245;19;20010;-55
2023/09/01 11:06:03;;;;;;;0.22;0.20;;;;;;;19.12;100.00;98200.72;15277394;19;20022;-57
2023/09/01 11:11:28;;;;;;;0.20;0.20;;;;;;;19.42;100.00;98197.31;15277378;19;20010;-54
2023/09/01 11:16:55;;;;;;;0.43;0.20;;;;;;;19.50;100.00;98197.03;15276389;19;20018;-53
2023/09/01 11:22:20;;;;;;;0.70;0.25;;;;;;;19.51;100.00;98194.09;15279017;19;20014;-57
2023/09/01 11:27:44;;;;;;;0.20;0.20;;;;;;;19.58;100.00;98199.47;15276396;19;20018;-58
2023/09/01 11:33:15;;;;;;;0.35;0.35;;;;;;;19.43;100.00;98201.72;15280141;19;20014;-58
2023/09/01 11:38:43;;;;;;;;;;;;;;;19.53;100.00;98202.06;15280230;19;20042;-57
2023/09/01 11:44:10;;;;;;;0.20;0.20;;;;;;;19.65;100.00;98194.78;15271648;19;19932;-57
2023/09/01 11:49:37;;;;;;;4.13;2.05;;;;;;;19.60;100.00;98197.34;15278958;19;20501;-57
2023/09/01 11:55:07;;;;;;;0.55;0.45;;;;;;;19.39;100.00;98196.72;15273779;19;20022;-57
2023/09/01 12:00:39;;;;;;;1.38;0.20;;;;;;;19.17;100.00;98193.53;15268532;19;20408;-57
2023/09/01 12:06:22;;;;;;;0.30;0.28;;;;;;;19.06;100.00;98191.50;15273323;19;20503;-56
2023/09/01 12:11:57;;;;;;;0.20;0.20;;;;;;;19.00;100.00;98193.25;15273166;19;20014;-58
2023/09/01 12:17:27;;;;;;;0.35;0.20;;;;;;;18.92;100.00;98188.88;15273615;19;20033;-58
2023/09/01 12:22:55;;;;;;;0.20;0.10;;;;;;;18.91;100.00;98194.53;15275646;19;20018;-58
2023/09/01 12:28:20;;;;;;;0.30;0.30;;;;;;;18.89;100.00;98191.19;15275851;19;20518;-56
2023/09/01 12:33:45;;;;;;;0.40;0.20;;;;;;;18.84;100.00;98193.75;15270875;19;20345;-56
2023/09/01 12:39:13;;;;;;;0.30;0.30;;;;;;;18.78;100.00;98200.94;15273217;19;20390;-58
2023/09/01 12:44:38;;;;;;;0.40;0.40;;;;;;;18.72;100.00;98197.19;15268718;19;20023;-58
2023/09/01 12:50:02;;;;;;;0.50;0.50;;;;;;;18.69;100.00;98194.91;15276590;19;20479;-58
2023/09/01 12:55:30;;;;;;;0.82;0.82;;;;;;;18.66;100.00;98192.59;15268914;19;20280;-57
2023/09/01 13:00:54;;;;;;;0.73;0.30;;;;;;;18.56;100.00;98198.56;15273100;19;20018;-57
2023/09/01 13:06:19;;;;;;;0.35;0.20;;;;;;;18.55;100.00;98198.75;15264834;19;20278;-55
2023/09/01 13:11:46;;;;;;;0.30;0.30;;;;;;;18.53;100.00;98204.44;15273924;19;20349;-54
2023/09/01 13:17:12;;;;;;;0.20;0.20;;;;;;;18.47;100.00;98208.88;15262366;19;20081;-57
2023/09/01 13:22:36;;;;;;;1.10;0.30;;;;;;;18.41;100.00;98195.28;15267813;19;20367;-55
2023/09/01 13:28:04;;;;;;;0.90;0.30;;;;;;;18.39;100.00;98198.22;15267443;19;20014;-57
2023/09/01 13:33:29;;;;;;;0.73;0.20;;;;;;;18.38;100.00;98198.44;15269738;19;20767;-57
2023/09/01 13:38:55;;;;;;;0.70;0.30;;;;;;;18.40;100.00;98194.47;15261509;19;20086;-57
2023/09/01 13:44:24;;;;;;;1.33;0.20;;;;;;;18.49;100.00;98189.56;15266655;19;20022;-57
2023/09/01 13:49:49;;;;;;;0.30;0.30;;;;;;;18.62;100.00;98192.22;15262930;19;20017;-55
2023/09/01 13:55:15;;;;;;;2.15;0.40;;;;;;;18.76;100.00;98190.22;15266930;19;20011;-56
2023/09/01 14:00:42;;;;;;;0.47;0.20;;;;;;;18.86;100.00;98188.94;15265906;19;20785;-57
2023/09/01 14:06:15;;;;;;;1.63;0.30;;;;;;;18.93;100.00;98189.69;15267611;19;20019;-58
2023/09/01 14:11:40;;;;;;;0.60;0.20;;;;;;;18.98;100.00;98189.91;15274787;19;20018;-57
2023/09/01 14:17:09;;;;;;;0.20;0.20;;;;;;;19.05;100.00;98195.34;15279106;19;20022;-56
2023/09/01 14:22:34;;;;;;;0.30;0.30;;;;;;;18.99;100.00;98186.13;15271985;19;20029;-53
2023/09/01 14:28:00;;;;;;;0.20;0.20;;;;;;;19.00;100.00;98187.78;15281412;19;20031;-56
2023/09/01 14:33:28;;;;;;;1.65;0.13;;;;;;;18.89;100.00;98188.47;15278453;19;20021;-57
2023/09/01 14:39:05;;;;;;;1.33;0.20;;;;;;;18.76;100.00;98197.59;15282761;19;20017;-56
2023/09/01 14:44:30;;;;;;;0.15;0.15;;;;;;;18.60;100.00;98215.31;15273797;19;20014;-53
2023/09/01 14:49:58;;;;;;;0.47;0.10;;;;;;;18.38;100.00;98218.38;15282734;19;20494;-56
2023/09/01 14:55:22;;;;;;;0.10;0.10;;;;;;;18.20;100.00;98238.16;15272744;19;20022;-55
2023/09/01 15:00:47;;;;;;;0.68;0.20;;;;;;;18.07;100.00;98249.94;15276528;19;20815;-57
2023/09/01 15:06:21;;;;;;;0.10;0.10;;;;;;;17.96;100.00;98264.19;15274864;19;20335;-58
2023/09/01 15:11:45;;;;;;;0.20;0.20;;;;;;;17.86;100.00;98281.81;15275021;19;20498;-57
2023/09/01 15:17:10;;;;;;;0.20;0.20;;;;;;;17.71;100.00;98278.47;15269576;19;20014;-59
2023/09/01 15:22:37;;;;;;;0.25;0.10;;;;;;;17.61;100.00;98303.44;15274206;19;20415;-60
2023/09/01 15:28:02;;;;;;;0.45;0.30;;;;;;;17.51;100.00;98328.38;15273550;19;20089;-58
2023/09/01 15:33:29;;;;;;;0.30;0.25;;;;;;;17.46;100.00;98347.22;15276917;19;20025;-60
2023/09/01 15:38:58;;;;;;;0.32;0.20;;;;;;;17.35;100.00;98356.84;15276356;19;20480;-58
2023/09/01 15:44:24;;;;;;;3.20;0.50;;;;;;;17.18;100.00;98375.44;15272982;19;20026;-60
2023/09/01 15:49:49;;;;;;;1.75;0.50;;;;;;;17.08;100.00;98388.63;15272783;19;20014;-61
2023/09/01 15:55:16;;;;;;;0.50;0.30;;;;;;;16.97;100.00;98400.09;15272631;19;20077;-61
2023/09/01 16:00:48;;;;;;;0.57;0.30;;;;;;;16.90;100.00;98403.56;15268865;19;20369;-56
2023/09/01 16:06:35;;;;;;;1.02;0.57;;;;;;;16.81;100.00;98417.56;15272966;19;20023;-60
2023/09/01 16:12:03;;;;;;;0.82;0.50;;;;;;;16.75;100.00;98419.22;15274087;19;20505;-59
2023/09/01 16:17:28;;;;;;;2.08;0.85;;;;;;;16.71;100.00;98420.66;15268640;19;20041;-60
2023/09/01 16:22:52;;;;;;;1.85;0.90;;;;;;;16.68;100.00;98427.34;15267914;19;20040;-59
2023/09/01 16:28:20;;;;;;;2.22;0.90;;;;;;;16.70;100.00;98435.28;15272289;19;20018;-59
2023/09/01 16:33:44;;;;;;;2.00;1.10;;;;;;;16.69;100.00;98422.72;15267270;19;20346;-59
2023/09/01 16:39:09;;;;;;;3.20;1.02;;;;;;;16.67;100.00;98414.78;15271396;19;20019;-58
2023/09/01 16:44:37;;;;;;;1.35;0.80;;;;;;;16.68;100.00;98438.22;15270981;19;20397;-59
2023/09/01 16:50:02;;;;;;;1.92;1.00;;;;;;;16.72;100.00;98454.97;15268614;19;20044;-58
2023/09/01 16:55:26;;;;;;;2.28;1.25;;;;;;;16.76;100.00;98473.41;15270281;19;20021;-58
2023/09/01 17:00:55;;;;;;;1.45;0.90;;;;;;;16.80;100.00;98465.69;15270426;19;20025;-59
2023/09/01 17:06:28;;;;;;;0.50;0.50;;;;;;;16.83;100.00;98451.69;15265952;19;20026;-55
2023/09/01 17:11:53;;;;;;;0.60;0.50;;;;;;;16.84;100.00;98461.53;15270019;19;20029;-57
2023/09/01 17:17:21;;;;;;;1.52;0.60;;;;;;;16.79;100.00;98451.25;15271762;19;20407;-59
2023/09/01 17:22:46;;;;;;;3.20;0.70;;;;;;;16.73;100.00;98443.06;15262490;19;20021;-58
2023/09/01 17:28:12;;;;;;;0.57;0.50;;;;;;;16.68;100.00;98454.53;15271313;19;20081;-55
2023/09/01 17:33:39;;;;;;;1.00;0.70;;;;;;;16.67;100.00;98457.44;15269385;19;20855;-58
2023/09/01 17:39:04;;;;;;;1.10;0.70;;;;;;;16.63;100.00;98476.91;15264491;19;20019;-58
2023/09/01 17:44:30;;;;;;;1.00;0.50;;;;;;;16.62;100.00;98483.38;15263272;19;20022;-58
2023/09/01 17:49:58;;;;;;;0.85;0.60;;;;;;;16.62;100.00;98488.81;15268758;19;20021;-59
2023/09/01 17:55:25;;;;;;;1.00;0.60;;;;;;;16.62;100.00;98482.53;15259866;19;20340;-56
2023/09/01 18:00:50;;;;;;;2.10;0.80;;;;;;;16.59;100.00;98488.34;15267351;19;20014;-58
2023/09/01 18:06:25;;;;;;;0.73;0.73;;;;;;;16.40;100.00;98511.66;15263828;19;20023;-58
2023/09/01 18:11:53;;;;;;;1.58;0.90;;;;;;;16.30;100.00;98533.75;15267497;19;20021;-58
2023/09/01 18:17:18;;;;;;;0.80;0.80;;;;;;;16.22;100.00;98548.31;15265528;19;20010;-57
2023/09/01 18:22:51;;;;;;;2.20;0.68;;;;;;;16.30;100.00;98550.88;15262928;19;20086;-52
2023/09/01 18:28:15;;;;;;;0.60;0.60;;;;;;;16.36;100.00;98548.44;15257469;19;20018;-54
2023/09/01 18:33:45;;;;;;;1.20;0.88;;;;;;;16.35;100.00;98569.31;15266653;19;20412;-54
2023/09/01 18:39:14;;;;;;;1.02;0.90;;;;;;;16.40;100.00;98579.66;15262939;19;20025;-54
2023/09/01 18:44:44;;;;;;;1.08;0.90;;;;;;;16.41;100.00;98584.03;15263142;19;20783;-56
2023/09/01 18:50:12;;;;;;;0.80;0.80;;;;;;;16.42;100.00;98585.72;15263149;19;20020;-54
2023/09/01 18:55:47;;;;;;;1.13;0.95;;;;;;;16.42;100.00;98591.16;15268614;19;20006;-50
2023/09/01 19:01:12;;;;;;;1.23;0.80;;;;;;;16.42;100.00;98586.56;15271983;19;20043;-49
2023/09/01 19:06:45;;;;;;;1.80;1.10;;;;;;;16.45;100.00;98607.06;15274898;19;20022;-54
2023/09/01 19:12:15;;;;;;;1.38;0.90;;;;;;;16.43;100.00;98620.88;15270359;19;20025;-55
2023/09/01 19:17:40;;;;;;;1.25;1.10;;;;;;;16.40;100.00;98617.72;15275377;19;20033;-55
2023/09/01 19:23:11;;;;;;;1.95;1.08;;;;;;;16.38;100.00;98617.88;15271338;19;20026;-54
2023/09/01 19:28:39;;;;;;;1.83;1.10;;;;;;;16.37;100.00;98616.19;15275819;19;20018;-52
2023/09/01 19:34:08;;;;;;;1.38;1.27;;;;;;;16.36;100.00;98621.84;15270844;19;20018;-52
2023/09/01 19:39:34;;;;;;;16.75;1.75;;;;;;;16.31;100.00;98631.41;15274610;19;20039;-52
2023/09/01 19:45:04;;;;;;;1.60;1.50;;;;;;;16.27;100.00;98641.00;15270051;19;20007;-53
2023/09/01 19:50:32;;;;;;;2.60;1.83;;;;;;;16.24;100.00;98651.41;15252392;19;20018;-54
2023/09/01 19:56:00;;;;;;;2.72;1.75;;;;;;;16.22;100.00;98650.78;15272568;19;20010;-53
2023/09/01 20:01:31;;;;;;;1.17;1.08;;;;;;;16.20;100.00;98653.66;15274557;19;20015;-52
2023/09/01 20:06:56;;;;;;;1.20;1.10;;;;;;;16.20;100.00;98659.09;15263658;19;20010;-54
2023/09/01 20:12:16;;;;;;;1.40;1.30;;;;;;;16.18;100.00;98677.47;15276007;19;20031;-50
2023/09/01 20:17:44;;;;;;;1.23;1.10;;;;;;;16.19;100.00;98684.59;15270917;19;20014;-55
2023/09/01 20:23:08;;;;;;;1.42;1.10;;;;;;;16.17;100.00;98686.66;15272024;19;20528;-53
2023/09/01 20:28:33;;;;;;;1.98;0.90;;;;;;;16.17;100.00;98690.25;15273730;19;20370;-56
2023/09/01 20:34:00;;;;;;;1.23;1.00;;;;;;;16.18;100.00;98686.50;15273777;19;20006;-56
2023/09/01 20:39:25;;;;;;;1.20;1.10;;;;;;;16.16;100.00;98680.41;15265105;19;20013;-50
2023/09/01 20:44:51;;;;;;;1.30;1.10;;;;;;;16.16;100.00;98685.00;15255654;19;20464;-49
2023/09/01 20:50:19;;;;;;;1.13;1.05;;;;;;;16.15;100.00;98683.31;15264554;19;20020;-53
2023/09/01 20:55:44;;;;;;;1.20;1.10;;;;;;;16.10;100.00;98685.75;15253933;19;20022;-51
2023/09/01 21:01:09;;;;;;;1.50;1.20;;;;;;;16.07;100.00;98697.00;15257183;19;20528;-50
2023/09/01 21:06:46;;;;;;;1.40;1.30;;;;;;;16.04;100.00;98711.81;15262423;19;20018;-54
2023/09/01 21:12:11;;;;;;;3.42;1.35;;;;;;;16.01;100.00;98710.34;15265993;19;20019;-53
2023/09/01 21:17:37;;;;;;;1.50;1.40;;;;;;;16.00;100.00;98719.50;15268993;19;20094;-54
2023/09/01 21:22:57;;;;;;;1.83;1.50;;;;;;;15.99;100.00;98723.25;15261432;19;20468;-52
2023/09/01 21:28:22;;;;;;;2.85;1.40;;;;;;;15.99;100.00;98727.88;15267886;19;20017;-49
2023/09/01 21:33:49;;;;;;;1.38;1.27;;;;;;;15.97;100.00;98733.47;15268442;19;20014;-52
2023/09/01 21:39:16;;;;;;;2.42;1.33;;;;;;;15.99;100.00;98744.16;15269692;19;20274;-54
2023/09/01 21:44:42;;;;;;;1.30;1.20;;;;;;;16.00;100.00;98753.97;15264776;19;20053;-52
2023/09/01 21:50:08;;;;;;;1.05;1.00;;;;;;;15.99;100.00;98750.44;15271968;19;20021;-50
2023/09/01 21:55:36;;;;;;;1.50;1.00;;;;;;;15.99;100.00;98750.44;15261094;19;20774;-49
2023/09/01 22:01:01;;;;;;;1.52;1.23;;;;;;;15.97;100.00;98755.22;15268378;19;20018;-50
2023/09/01 22:06:32;;;;;;;1.40;1.00;;;;;;;15.97;100.00;98760.63;15266463;19;20043;-52
2023/09/01 22:12:00;;;;;;;1.60;1.20;;;;;;;15.96;100.00;98764.38;15264717;19;20018;-55
2023/09/01 22:17:25;;;;;;;1.85;1.05;;;;;;;15.95;100.00;98759.97;15264440;19;20032;-49
2023/09/01 22:22:50;;;;;;;1.50;1.10;;;;;;;15.93;100.00;98761.22;15266545;19;20014;-50
2023/09/01 22:28:17;;;;;;;1.33;1.10;;;;;;;15.92;100.00;98773.97;15263394;19;20070;-50
2023/09/01 22:33:42;;;;;;;1.45;1.35;;;;;;;15.91;100.00;98780.44;15282173;19;20019;-49
2023/09/01 22:39:07;;;;;;;1.05;1.02;;;;;;;15.89;100.00;98778.91;15283499;19;20094;-54
2023/09/01 22:44:41;;;;;;;1.20;1.10;;;;;;;15.90;100.00;98794.19;15271997;19;20078;-54
2023/09/01 22:50:08;;;;;;;2.72;1.20;;;;;;;15.88;100.00;98794.38;15283666;19;20033;-51
2023/09/01 22:55:33;;;;;;;1.75;1.20;;;;;;;15.85;100.00;98792.88;15278042;19;20010;-54
2023/09/01 23:01:03;;;;;;;2.35;1.00;;;;;;;15.83;100.00;98796.75;15257705;19;20035;-43
2023/09/01 23:06:28;;;;;;;2.78;1.17;;;;;;;15.79;100.00;98798.19;15273374;19;20114;-44
2023/09/01 23:11:54;;;;;;;1.63;1.10;;;;;;;15.77;100.00;98801.06;15276916;19;20007;-46
2023/09/01 23:17:21;;;;;;;2.70;1.25;;;;;;;15.77;100.00;98797.53;14760838;19;10002232;-48
2023/09/01 23:22:46;;;;;;;1.60;1.50;;;;;;;15.72;100.00;98801.63;15274716;19;20025;-47
2023/09/01 23:28:10;;;;;;;1.75;1.40;;;;;;;15.71;100.00;98799.09;15279296;19;20741;-43
2023/09/01 23:33:38;;;;;;;2.88;1.40;;;;;;;15.69;100.00;98806.59;15273820;19;20019;-44
2023/09/01 23:39:03;;;;;;;2.30;1.67;;;;;;;15.67;100.00;98809.50;15273434;19;20479;-43
2023/09/01 23:44:28;;;;;;;1.60;1.50;;;;;;;15.62;100.00;98808.38;15270414;19;20019;-44
2023/09/01 23:49:56;;;;;;;2.42;1.58;;;;;;;15.58;100.00;98821.47;15268420;19;20503;-45
2023/09/01 23:55:21;;;;;;;2.70;1.70;;;;;;;15.49;100.00;98828.84;15277304;19;20010;-45
